Time;durP1;ratioP1;P1;durP2;ratioP2;P2;SDS_P1;SDS_P2;PMS_P1;PMS_P2;Temp;Humidity;BMP_temperature;BMP_pressure;BME280_temperature;BME280_humidity;BME280_pressure;Samples;Min_cycle;Max_cycle;Signal;HPM_P1;HPM_P2
2023/08/13 00:01:16;;;;;;;;;;;;;;;21.80;50.80;95054.31;4204463;28;19985;-77
2023/08/13 00:03:18;;;;;;;;;;;;;;;21.81;50.66;95045.28;4217056;28;20680;-78
2023/08/13 00:05:20;;;;;;;;;;;;;;;21.72;50.79;95042.06;4210769;28;19928;-78
2023/08/13 00:07:23;;;;;;;;;;;;;;;21.59;51.31;95042.19;4225468;28;19964;-78
2023/08/13 00:09:25;;;;;;;;;;;;;;;21.55;51.48;95043.69;4211144;28;19924;-78
2023/08/13 00:11:26;;;;;;;;;;;;;;;21.56;51.19;95043.47;4226663;28;19971;-78
2023/08/13 00:13:28;;;;;;;;;;;;;;;21.58;50.94;95043.25;4202184;28;20312;-76
2023/08/13 00:15:29;;;;;;;;;;;;;;;21.57;50.58;95047.75;4205205;28;19962;-77
2023/08/13 00:17:37;;;;;;;;;;;;;;;21.59;50.40;95056.34;4208010;28;20353;-77
2023/08/13 00:19:38;;;;;;;;;;;;;;;21.56;49.99;95054.13;4200799;28;19976;-79
2023/08/13 00:21:40;;;;;;;;;;;;;;;21.52;50.38;95046.78;4215494;28;19934;-79
2023/08/13 00:23:55;;;;;;;;;;;;;;;21.43;50.54;95054.25;4219667;28;19928;-76
2023/08/13 00:25:56;;;;;;;;;;;;;;;21.39;50.90;95051.16;4221197;28;20560;-79
2023/08/13 00:27:58;;;;;;;;;;;;;;;21.37;50.90;95049.75;4194692;28;19962;-79
2023/08/13 00:30:00;;;;;;;;;;;;;;;21.34;51.16;95058.16;4218161;27;19946;-77
2023/08/13 00:32:01;;;;;;;;;;;;;;;21.36;51.05;95054.28;4225868;28;19985;-79
2023/08/13 00:34:03;;;;;;;;;;;;;;;21.31;50.87;95050.63;4225006;28;19992;-77
2023/08/13 00:36:05;;;;;;;;;;;;;;;21.18;50.54;95057.66;4221549;28;20290;-79
2023/08/13 00:38:06;;;;;;;;;;;;;;;21.07;51.20;95063.69;4195622;28;19932;-78
2023/08/13 00:40:08;;;;;;;;;;;;;;;20.94;51.31;95056.59;4225139;27;19946;-78
2023/08/13 00:42:10;;;;;;;;;;;;;;;20.86;51.75;95048.88;4222285;28;20006;-77
2023/08/13 00:44:12;;;;;;;;;;;;;;;20.76;51.84;95060.00;4223005;28;20101;-78
2023/08/13 00:46:14;;;;;;;;;;;;;;;20.73;51.81;95055.09;4219196;28;19932;-77
2023/08/13 00:48:16;;;;;;;;;;;;;;;20.73;52.08;95055.09;4218938;28;19986;-78
2023/08/13 00:50:18;;;;;;;;;;;;;;;20.67;52.02;95055.94;4220672;28;20230;-77
2023/08/13 00:52:19;;;;;;;;;;;;;;;20.75;52.03;95055.69;4201046;28;19928;-77
2023/08/13 00:54:21;;;;;;;;;;;;;;;20.80;51.94;95053.22;4224217;28;19928;-78
2023/08/13 00:56:23;;;;;;;;;;;;;;;20.82;51.94;95051.16;4198920;28;19928;-79
2023/08/13 00:58:25;;;;;;;;;;;;;;;20.86;52.09;95049.72;4221459;28;19924;-78
2023/08/13 01:00:27;;;;;;;;;;;;;;;20.76;52.08;95049.34;4214905;28;19928;-77
2023/08/13 01:02:29;;;;;;;;;;;;;;;20.68;52.40;95046.94;4205471;28;20102;-78
2023/08/13 01:04:30;;;;;;;;;;;;;;;20.58;52.67;95042.06;4204756;28;20341;-77
2023/08/13 01:06:53;;;;;;;;;;;;;;;20.57;52.66;95048.44;4212618;28;19956;-77
2023/08/13 01:08:54;;;;;;;;;;;;;;;20.48;53.23;95047.03;4191801;28;19928;-78
2023/08/13 01:11:05;;;;;;;;;;;;;;;20.45;53.49;95045.56;4221400;28;19923;-79
2023/08/13 01:13:15;;;;;;;;;;;;;;;20.43;53.78;95046.81;4205805;28;19933;-79
2023/08/13 01:15:17;;;;;;;;;;;;;;;20.40;54.09;95041.94;4195400;28;19936;-77
2023/08/13 01:17:19;;;;;;;;;;;;;;;20.44;54.12;95043.16;4226299;27;19924;-77
2023/08/13 01:19:20;;;;;;;;;;;;;;;20.46;53.99;95044.56;4207556;28;19936;-79
2023/08/13 01:21:22;;;;;;;;;;;;;;;20.49;53.86;95039.84;4222255;28;19928;-78
2023/08/13 01:23:24;;;;;;;;;;;;;;;20.44;53.99;95035.97;4216610;27;19924;-78
2023/08/13 01:25:26;;;;;;;;;;;;;;;20.41;54.38;95036.41;4194742;28;20007;-77
2023/08/13 01:27:32;;;;;;;;;;;;;;;20.45;54.44;95034.94;4201428;28;19981;-77
2023/08/13 01:29:42;;;;;;;;;;;;;;;20.51;54.39;95033.28;4195972;28;20508;-79
2023/08/13 01:31:46;;;;;;;;;;;;;;;20.57;54.33;95031.63;4205074;28;19943;-80
2023/08/13 01:33:47;;;;;;;;;;;;;;;20.60;54.27;95031.22;4214104;27;20387;-78
2023/08/13 01:35:49;;;;;;;;;;;;;;;20.62;54.37;95040.59;4200522;28;19924;-76
2023/08/13 01:37:51;;;;;;;;;;;;;;;20.64;54.13;95040.41;4214116;28;20006;-79
2023/08/13 01:39:54;;;;;;;;;;;;;;;20.59;54.24;95041.03;4207610;28;19928;-78
2023/08/13 01:41:56;;;;;;;;;;;;;;;20.41;54.28;95044.38;4225529;27;19964;-76
2023/08/13 01:43:57;;;;;;;;;;;;;;;20.38;54.51;95046.66;4231601;27;19950;-78
2023/08/13 01:45:59;;;;;;;;;;;;;;;20.38;54.67;95044.00;4221440;27;19924;-75
2023/08/13 01:48:01;;;;;;;;;;;;;;;20.41;54.70;95049.72;4212793;28;20103;-77
2023/08/13 01:50:04;;;;;;;;;;;;;;;20.45;54.77;95053.56;4231019;28;19981;-78
2023/08/13 01:52:06;;;;;;;;;;;;;;;20.49;54.67;95042.50;4218177;28;19924;-77
2023/08/13 01:54:07;;;;;;;;;;;;;;;20.52;54.37;95044.72;4222902;28;20022;-77
2023/08/13 01:56:09;;;;;;;;;;;;;;;20.48;54.47;95040.84;4215830;28;19928;-79
2023/08/13 01:58:11;;;;;;;;;;;;;;;20.37;54.65;95039.69;4224159;28;19982;-77
2023/08/13 02:00:13;;;;;;;;;;;;;;;20.38;54.75;95041.31;4206546;28;19937;-81
2023/08/13 02:02:14;;;;;;;;;;;;;;;20.39;54.87;95035.81;4209256;28;19935;-78
2023/08/13 02:04:17;;;;;;;;;;;;;;;20.38;54.77;95041.31;4216207;28;19968;-78
2023/08/13 02:06:18;;;;;;;;;;;;;;;20.24;54.87;95040.53;4213967;28;19982;-78
2023/08/13 02:08:20;;;;;;;;;;;;;;;20.12;55.42;95037.75;4219186;28;19930;-79
2023/08/13 02:10:24;;;;;;;;;;;;;;;19.97;56.49;95038.00;4226443;28;19927;-78
2023/08/13 02:12:26;;;;;;;;;;;;;;;19.78;57.02;95044.16;4225725;28;19934;-76
2023/08/13 02:14:28;;;;;;;;;;;;;;;19.70;57.26;95044.38;4203300;28;19924;-77
2023/08/13 02:16:29;;;;;;;;;;;;;;;19.70;57.22;95044.38;4227760;27;19928;-77
2023/08/13 02:18:31;;;;;;;;;;;;;;;19.49;57.70;95046.25;4223665;28;19930;-77
2023/08/13 02:20:32;;;;;;;;;;;;;;;19.46;57.78;95038.66;4223324;28;20336;-77
2023/08/13 02:22:34;;;;;;;;;;;;;;;19.47;57.71;95034.16;4224343;28;19934;-79
2023/08/13 02:24:37;;;;;;;;;;;;;;;19.51;57.55;95033.56;4219066;28;19928;-78
2023/08/13 02:26:39;;;;;;;;;;;;;;;19.51;57.84;95036.22;4223394;28;19966;-77
2023/08/13 02:28:43;;;;;;;;;;;;;;;19.54;57.86;95040.31;4227915;27;20024;-77
2023/08/13 02:30:45;;;;;;;;;;;;;;;19.58;57.66;95036.22;4238657;27;19927;-77
2023/08/13 02:32:47;;;;;;;;;;;;;;;19.62;57.68;95043.56;4228610;28;19939;-78
2023/08/13 02:34:49;;;;;;;;;;;;;;;19.67;57.67;95042.94;4227414;28;19966;-77
2023/08/13 02:36:51;;;;;;;;;;;;;;;19.71;57.67;95041.53;4235965;27;20062;-78
2023/08/13 02:38:52;;;;;;;;;;;;;;;19.68;57.71;95044.59;4221417;27;20160;-78
2023/08/13 02:40:54;;;;;;;;;;;;;;;19.56;57.98;95043.56;4231268;27;19927;-77
2023/08/13 02:42:55;;;;;;;;;;;;;;;19.42;58.21;95053.38;4218014;28;19924;-76
2023/08/13 02:44:57;;;;;;;;;;;;;;;19.36;58.52;95047.06;4228406;28;20010;-78
2023/08/13 02:46:59;;;;;;;;;;;;;;;19.40;58.59;95045.63;4197458;28;20012;-78
2023/08/13 02:49:03;;;;;;;;;;;;;;;19.50;58.52;95047.84;4213963;28;20026;-77
2023/08/13 02:51:05;;;;;;;;;;;;;;;19.56;58.13;95047.03;4221721;28;19930;-77
2023/08/13 02:53:06;;;;;;;;;;;;;;;19.60;58.23;95050.91;4227260;28;19946;-77
2023/08/13 02:55:08;;;;;;;;;;;;;;;19.65;57.98;95056.41;4225681;28;20444;-77
2023/08/13 02:57:10;;;;;;;;;;;;;;;19.11;59.30;95065.44;4205099;28;19928;-77
2023/08/13 02:59:12;;;;;;;;;;;;;;;18.28;62.09;95062.13;4200080;28;19924;-78
2023/08/13 03:01:16;;;;;;;;;;;;;;;17.61;64.51;95067.03;4214098;28;19946;-76
2023/08/13 03:03:18;;;;;;;;;;;;;;;17.39;65.25;95063.63;4212306;28;20352;-77
2023/08/13 03:05:19;;;;;;;;;;;;;;;17.29;65.89;95065.78;4212850;27;19947;-78
2023/08/13 03:07:21;;;;;;;;;;;;;;;17.41;66.06;95066.91;4215593;28;20042;-78
2023/08/13 03:09:23;;;;;;;;;;;;;;;17.44;65.60;95061.19;4226162;28;19924;-77
2023/08/13 03:11:24;;;;;;;;;;;;;;;17.51;65.32;95064.75;4229270;27;19935;-76
2023/08/13 03:13:26;;;;;;;;;;;;;;;17.64;64.97;95063.16;4204638;28;20430;-76
2023/08/13 03:15:28;;;;;;;;;;;;;;;17.70;64.31;95059.75;4206097;28;20267;-76
2023/08/13 03:17:29;;;;;;;;;;;;;;;17.72;64.08;95063.03;4223230;28;19924;-77
2023/08/13 03:19:31;;;;;;;;;;;;;;;17.58;64.43;95068.25;4226933;28;19959;-77
2023/08/13 03:21:33;;;;;;;;;;;;;;;17.40;65.10;95067.88;4227427;28;19931;-77
2023/08/13 03:23:34;;;;;;;;;;;;;;;17.37;65.10;95068.28;4226645;28;19927;-78
2023/08/13 03:25:36;;;;;;;;;;;;;;;17.34;65.19;95064.19;4200262;28;20151;-77
2023/08/13 03:27:38;;;;;;;;;;;;;;;17.49;65.12;95071.25;4233712;27;19935;-78
2023/08/13 03:29:39;;;;;;;;;;;;;;;17.67;64.68;95068.91;4225339;27;19932;-78
2023/08/13 03:31:41;;;;;;;;;;;;;;;17.70;63.83;95065.03;4211089;28;19928;-78
2023/08/13 03:33:42;;;;;;;;;;;;;;;17.73;63.91;95064.69;4211132;28;20071;-78
2023/08/13 03:35:44;;;;;;;;;;;;;;;17.82;63.82;95066.19;4211110;28;19936;-77
2023/08/13 03:37:46;;;;;;;;;;;;;;;17.96;63.42;95054.66;4212410;28;19971;-77
2023/08/13 03:39:47;;;;;;;;;;;;;;;18.17;62.87;95053.72;4217600;27;19955;-79
2023/08/13 03:41:52;;;;;;;;;;;;;;;18.28;62.24;95054.16;4220249;28;21702;-75
2023/08/13 03:43:54;;;;;;;;;;;;;;;18.44;61.61;95053.03;4227242;27;20329;-77
2023/08/13 03:45:56;;;;;;;;;;;;;;;18.57;61.18;95050.41;4218579;28;20311;-79
2023/08/13 03:47:57;;;;;;;;;;;;;;;18.63;60.73;95047.75;4212407;28;19954;-76
2023/08/13 03:50:00;;;;;;;;;;;;;;;18.75;60.50;95055.13;4222723;28;20023;-76
2023/08/13 03:52:04;;;;;;;;;;;;;;;18.71;60.65;95057.34;4212964;28;20224;-76
2023/08/13 03:54:06;;;;;;;;;;;;;;;18.75;60.62;95060.44;4226502;28;19928;-76
2023/08/13 03:56:10;;;;;;;;;;;;;;;18.31;60.97;95067.84;4226989;28;19931;-79
2023/08/13 03:58:12;;;;;;;;;;;;;;;17.91;62.38;95070.31;4238437;27;19927;-76
2023/08/13 04:00:14;;;;;;;;;;;;;;;17.77;62.80;95073.88;4226542;27;20472;-78
2023/08/13 04:02:15;;;;;;;;;;;;;;;17.68;63.42;95075.03;4227179;28;19923;-78
2023/08/13 04:04:18;;;;;;;;;;;;;;;17.76;63.24;95070.38;4228198;28;19931;-78
2023/08/13 04:06:21;;;;;;;;;;;;;;;17.88;63.07;95072.53;4213449;27;19974;-78
2023/08/13 04:08:23;;;;;;;;;;;;;;;18.03;62.51;95070.59;4203299;28;20034;-80
2023/08/13 04:10:25;;;;;;;;;;;;;;;17.88;62.62;95078.66;4198208;28;20429;-77
2023/08/13 04:12:26;;;;;;;;;;;;;;;17.58;63.25;95070.06;4223526;28;19962;-76
2023/08/13 04:14:28;;;;;;;;;;;;;;;17.36;63.90;95069.31;4234878;28;19965;-77
2023/08/13 04:16:29;;;;;;;;;;;;;;;17.40;64.29;95075.84;4216641;28;20014;-78
2023/08/13 04:18:31;;;;;;;;;;;;;;;17.67;64.10;95082.16;4225283;28;20023;-77
2023/08/13 04:20:35;;;;;;;;;;;;;;;17.97;63.32;95082.78;4226617;28;19954;-78
2023/08/13 04:22:36;;;;;;;;;;;;;;;18.25;62.38;95089.06;4227183;28;19924;-79
2023/08/13 04:24:38;;;;;;;;;;;;;;;18.34;61.19;95088.66;4239472;28;19928;-76
2023/08/13 04:26:40;;;;;;;;;;;;;;;17.94;62.28;95088.47;4232414;28;20413;-76
2023/08/13 04:28:41;;;;;;;;;;;;;;;17.74;63.01;95092.78;4226928;28;19954;-77
2023/08/13 04:30:43;;;;;;;;;;;;;;;17.93;62.89;95092.13;4243601;28;19934;-80
2023/08/13 04:32:51;;;;;;;;;;;;;;;18.31;62.11;95094.38;4248212;27;19923;-77
2023/08/13 04:34:53;;;;;;;;;;;;;;;18.56;61.25;95092.03;4235745;27;19924;-76
2023/08/13 04:36:54;;;;;;;;;;;;;;;18.82;60.55;95096.63;4254406;27;19928;-79
2023/08/13 04:38:56;;;;;;;;;;;;;;;19.08;59.63;95100.38;4249087;27;19999;-78
2023/08/13 04:40:57;;;;;;;;;;;;;;;19.26;58.73;95101.63;4241747;27;19951;-78
2023/08/13 04:42:59;;;;;;;;;;;;;;;19.39;58.45;95098.97;4223598;28;19924;-77
2023/08/13 04:45:00;;;;;;;;;;;;;;;19.45;57.94;95100.81;4240672;28;19982;-77
2023/08/13 04:47:05;;;;;;;;;;;;;;;19.54;57.84;95096.09;4240489;28;20219;-77
2023/08/13 04:49:06;;;;;;;;;;;;;;;19.62;57.61;95106.53;4251981;27;19930;-78
2023/08/13 04:51:08;;;;;;;;;;;;;;;19.68;57.50;95107.53;4242653;27;19938;-76
2023/08/13 04:53:11;;;;;;;;;;;;;;;19.76;57.16;95104.69;4224234;28;19956;-78
2023/08/13 04:55:13;;;;;;;;;;;;;;;19.78;56.93;95105.31;4227253;28;20030;-80
2023/08/13 04:57:16;;;;;;;;;;;;;;;19.85;56.72;95103.44;4227326;28;20031;-79
2023/08/13 04:59:19;;;;;;;;;;;;;;;19.90;56.56;95108.97;4226946;28;19967;-79
2023/08/13 05:01:21;;;;;;;;;;;;;;;19.99;56.38;95107.72;4225832;28;19934;-80
2023/08/13 05:03:22;;;;;;;;;;;;;;;20.07;55.98;95108.53;4213027;28;19931;-78
2023/08/13 05:05:24;;;;;;;;;;;;;;;20.12;55.80;95106.91;4219872;28;20352;-78
2023/08/13 05:07:26;;;;;;;;;;;;;;;20.14;55.77;95112.81;4211042;28;20294;-79
2023/08/13 05:09:29;;;;;;;;;;;;;;;20.19;55.70;95109.53;4215122;28;20458;-78
2023/08/13 05:11:31;;;;;;;;;;;;;;;20.03;56.30;95113.47;4206211;28;20362;-77
2023/08/13 05:13:33;;;;;;;;;;;;;;;20.12;56.03;95106.09;4238737;28;19928;-79
2023/08/13 05:15:35;;;;;;;;;;;;;;;20.20;55.71;95109.34;4191626;28;19977;-78
2023/08/13 05:17:37;;;;;;;;;;;;;;;20.31;55.48;95112.38;4224987;28;19928;-78
2023/08/13 05:19:38;;;;;;;;;;;;;;;20.14;55.67;95114.66;4217006;28;19928;-77
2023/08/13 05:21:40;;;;;;;;;;;;;;;19.88;56.58;95116.34;4219799;28;19924;-78
2023/08/13 05:23:41;;;;;;;;;;;;;;;19.89;56.63;95112.66;4206370;28;20390;-79
2023/08/13 05:25:47;;;;;;;;;;;;;;;20.05;56.25;95109.56;4213378;28;19974;-78
2023/08/13 05:27:49;;;;;;;;;;;;;;;20.17;56.12;95108.91;4226804;28;19924;-79
2023/08/13 05:29:51;;;;;;;;;;;;;;;20.32;55.50;95111.34;4226488;28;19935;-80
2023/08/13 05:31:53;;;;;;;;;;;;;;;20.45;55.04;95111.28;4224570;28;19936;-80
2023/08/13 05:33:57;;;;;;;;;;;;;;;20.32;55.41;95100.69;4238375;28;19932;-81
2023/08/13 05:35:59;;;;;;;;;;;;;;;20.33;55.54;95107.66;4208076;28;20074;-81
2023/08/13 05:38:00;;;;;;;;;;;;;;;20.38;55.44;95111.31;4214840;28;19924;-80
2023/08/13 05:40:08;;;;;;;;;;;;;;;20.42;55.42;95111.72;4226310;28;19927;-79
2023/08/13 05:42:09;;;;;;;;;;;;;;;20.35;55.36;95105.59;4211962;28;19928;-78
2023/08/13 05:44:11;;;;;;;;;;;;;;;20.30;55.89;95119.53;4221267;28;19924;-77
2023/08/13 05:46:13;;;;;;;;;;;;;;;20.01;56.47;95116.31;4212507;28;19924;-79
2023/08/13 05:48:14;;;;;;;;;;;;;;;19.93;57.15;95119.19;4210544;28;19935;-77
2023/08/13 05:50:16;;;;;;;;;;;;;;;20.05;56.71;95116.75;4210039;28;19982;-78
2023/08/13 05:52:18;;;;;;;;;;;;;;;20.21;56.65;95113.63;4199483;28;19931;-81
2023/08/13 05:54:21;;;;;;;;;;;;;;;20.22;56.17;95117.13;4225085;28;19923;-78
2023/08/13 05:56:22;;;;;;;;;;;;;;;20.15;56.48;95116.28;4231142;28;19928;-79
2023/08/13 05:58:24;;;;;;;;;;;;;;;20.32;56.23;95119.31;4224439;28;20066;-79
2023/08/13 06:00:27;;;;;;;;;;;;;;;20.52;56.01;95112.09;4228646;28;20415;-80
2023/08/13 06:02:29;;;;;;;;;;;;;;;20.73;54.90;95116.31;4228070;28;19924;-79
2023/08/13 06:04:31;;;;;;;;;;;;;;;20.85;54.42;95122.63;4208657;28;19939;-80
2023/08/13 06:06:34;;;;;;;;;;;;;;;20.96;53.98;95122.97;4228589;28;19934;-78
2023/08/13 06:08:36;;;;;;;;;;;;;;;20.94;53.92;95128.50;4208740;28;20026;-79
2023/08/13 06:10:39;;;;;;;;;;;;;;;20.74;54.41;95119.81;4222101;27;19931;-81
2023/08/13 06:12:41;;;;;;;;;;;;;;;20.52;55.02;95121.91;4228863;28;20019;-79
2023/08/13 06:14:43;;;;;;;;;;;;;;;20.46;55.15;95119.06;4208078;28;19956;-77
2023/08/13 06:16:45;;;;;;;;;;;;;;;20.62;55.36;95122.31;4224627;28;20001;-78
2023/08/13 06:18:51;;;;;;;;;;;;;;;20.82;54.86;95120.41;4223972;28;20003;-80
2023/08/13 06:20:52;;;;;;;;;;;;;;;21.07;54.09;95114.31;4224588;27;19974;-77
2023/08/13 06:22:54;;;;;;;;;;;;;;;20.96;53.76;95120.31;4229821;28;20014;-79
2023/08/13 06:24:56;;;;;;;;;;;;;;;20.88;54.24;95121.38;4220883;28;20673;-78
2023/08/13 06:26:58;;;;;;;;;;;;;;;20.79;54.44;95117.34;4229214;28;20355;-79
2023/08/13 06:29:02;;;;;;;;;;;;;;;20.63;55.04;95118.63;4233693;27;19928;-79
2023/08/13 06:31:04;;;;;;;;;;;;;;;20.51;54.94;95118.44;4221729;28;20454;-77
2023/08/13 06:33:06;;;;;;;;;;;;;;;20.66;54.78;95113.69;4204078;28;20415;-79
2023/08/13 06:35:08;;;;;;;;;;;;;;;20.97;54.27;95124.59;4226320;28;19924;-78
2023/08/13 06:37:09;;;;;;;;;;;;;;;20.92;54.34;95121.78;4211841;28;19928;-83
2023/08/13 06:39:11;;;;;;;;;;;;;;;21.08;54.22;95123.94;4233836;27;19924;-80
2023/08/13 06:41:13;;;;;;;;;;;;;;;21.10;54.04;95129.88;4227754;28;19924;-79
2023/08/13 06:43:14;;;;;;;;;;;;;;;21.02;53.45;95130.13;4229322;28;19932;-76
2023/08/13 06:45:16;;;;;;;;;;;;;;;20.73;54.45;95123.50;4213424;28;19924;-79
2023/08/13 06:47:19;;;;;;;;;;;;;;;20.92;54.25;95125.25;4222770;28;19971;-77
2023/08/13 06:49:20;;;;;;;;;;;;;;;21.19;54.32;95117.94;4230166;28;19943;-78
2023/08/13 06:51:22;;;;;;;;;;;;;;;21.26;52.46;95116.03;4214872;27;19924;-82
2023/08/13 06:53:24;;;;;;;;;;;;;;;21.30;52.53;95113.75;4201802;28;19931;-79
2023/08/13 06:55:25;;;;;;;;;;;;;;;21.47;52.01;95124.75;4219428;28;19934;-81
2023/08/13 06:57:30;;;;;;;;;;;;;;;21.63;52.06;95115.38;4222722;28;20346;-80
2023/08/13 06:59:32;;;;;;;;;;;;;;;21.88;51.62;95115.38;4223985;28;20325;-79
2023/08/13 07:01:34;;;;;;;;;;;;;;;22.08;51.22;95110.66;4219888;28;20267;-81
2023/08/13 07:03:36;;;;;;;;;;;;;;;22.23;50.39;95118.34;4217631;27;19988;-78
2023/08/13 07:05:39;;;;;;;;;;;;;;;22.21;50.28;95123.03;4219958;28;19994;-78
2023/08/13 07:07:42;;;;;;;;;;;;;;;22.22;49.41;95113.19;4223387;28;19923;-82
2023/08/13 07:09:43;;;;;;;;;;;;;;;22.18;49.72;95106.69;4197724;28;19924;-80
2023/08/13 07:11:45;;;;;;;;;;;;;;;22.17;49.62;95113.84;4198509;28;19932;-78
2023/08/13 07:13:48;;;;;;;;;;;;;;;22.27;49.08;95108.03;4218251;28;19931;-78
2023/08/13 07:15:49;;;;;;;;;;;;;;;21.86;49.84;95110.25;4233906;27;20073;-79
2023/08/13 07:17:51;;;;;;;;;;;;;;;21.74;49.98;95113.84;4227243;27;20018;-82
2023/08/13 07:19:53;;;;;;;;;;;;;;;21.69;50.33;95109.19;4214787;28;19931;-80
2023/08/13 07:21:54;;;;;;;;;;;;;;;21.91;50.16;95100.78;4224219;28;19938;-77
2023/08/13 07:23:56;;;;;;;;;;;;;;;22.19;49.65;95100.28;4224888;27;20290;-81
2023/08/13 07:25:57;;;;;;;;;;;;;;;22.39;48.46;95100.09;4193778;28;19935;-79
2023/08/13 07:28:00;;;;;;;;;;;;;;;22.54;48.75;95094.38;4219548;28;19924;-81
2023/08/13 07:30:02;;;;;;;;;;;;;;;22.75;47.48;95099.25;4227321;28;20595;-78
2023/08/13 07:32:04;;;;;;;;;;;;;;;22.48;47.68;95101.44;4235920;27;19933;-79
2023/08/13 07:34:06;;;;;;;;;;;;;;;22.64;47.74;95103.50;4222020;28;20018;-81
2023/08/13 07:36:08;;;;;;;;;;;;;;;22.72;47.24;95098.91;4220986;28;19950;-81
2023/08/13 07:38:10;;;;;;;;;;;;;;;22.99;46.74;95099.34;4240792;27;19927;-76
2023/08/13 07:40:12;;;;;;;;;;;;;;;23.19;46.60;95093.75;4208823;28;20036;-78
2023/08/13 07:42:14;;;;;;;;;;;;;;;23.18;45.73;95092.94;4219185;28;19928;-80
2023/08/13 07:44:16;;;;;;;;;;;;;;;23.15;46.26;95093.41;4227276;28;19928;-79
2023/08/13 07:46:17;;;;;;;;;;;;;;;23.15;46.00;95085.41;4208073;28;19932;-78
2023/08/13 07:48:19;;;;;;;;;;;;;;;22.98;46.07;95084.38;4211542;28;19938;-78
2023/08/13 07:50:21;;;;;;;;;;;;;;;22.97;46.12;95088.09;4194816;28;20245;-78
2023/08/13 07:52:22;;;;;;;;;;;;;;;23.07;45.75;95086.53;4225208;27;19927;-77
2023/08/13 07:54:24;;;;;;;;;;;;;;;23.36;45.75;95092.09;4238954;27;20064;-79
2023/08/13 07:56:26;;;;;;;;;;;;;;;23.60;45.35;95090.25;4232265;27;19936;-77
2023/08/13 07:58:28;;;;;;;;;;;;;;;23.88;44.98;95083.44;4223505;27;20304;-79
2023/08/13 08:00:30;;;;;;;;;;;;;;;24.03;44.20;95075.75;4215348;28;20097;-79
2023/08/13 08:02:32;;;;;;;;;;;;;;;24.23;43.66;95074.56;4226260;27;20036;-78
2023/08/13 08:04:34;;;;;;;;;;;;;;;24.41;43.22;95076.28;4212912;28;19939;-76
2023/08/13 08:06:36;;;;;;;;;;;;;;;24.47;42.78;95083.38;4206919;28;19999;-79
2023/08/13 08:08:37;;;;;;;;;;;;;;;24.39;42.87;95081.84;4214928;28;19932;-80
2023/08/13 08:10:39;;;;;;;;;;;;;;;24.32;42.74;95073.97;4229397;28;20318;-77
2023/08/13 08:12:41;;;;;;;;;;;;;;;24.34;43.02;95076.41;4220539;28;19934;-80
2023/08/13 08:14:42;;;;;;;;;;;;;;;24.50;43.46;95075.72;4203216;28;20418;-76
2023/08/13 08:16:44;;;;;;;;;;;;;;;24.62;42.69;95072.19;4222788;28;19928;-78
2023/08/13 08:18:46;;;;;;;;;;;;;;;24.82;42.88;95069.88;4226997;28;19928;-80
2023/08/13 08:20:47;;;;;;;;;;;;;;;25.07;42.49;95068.75;4216000;28;19924;-78
2023/08/13 08:22:49;;;;;;;;;;;;;;;25.23;42.04;95064.47;4225617;28;19923;-81
2023/08/13 08:24:51;;;;;;;;;;;;;;;25.24;41.14;95061.56;4230356;27;20389;-79
2023/08/13 08:26:52;;;;;;;;;;;;;;;25.28;41.05;95061.91;4226436;28;20015;-78
2023/08/13 08:28:54;;;;;;;;;;;;;;;25.38;41.24;95064.75;4209171;28;19932;-77
2023/08/13 08:30:55;;;;;;;;;;;;;;;25.42;40.36;95057.84;4233039;27;19950;-77
2023/08/13 08:32:57;;;;;;;;;;;;;;;25.33;40.62;95048.56;4225199;28;20030;-80
2023/08/13 08:34:59;;;;;;;;;;;;;;;25.21;39.87;95043.28;4242603;27;19973;-78
2023/08/13 08:37:03;;;;;;;;;;;;;;;25.14;40.78;95045.28;4227682;28;19930;-78
2023/08/13 08:39:05;;;;;;;;;;;;;;;25.06;40.64;95046.50;4228599;28;19947;-80
2023/08/13 08:41:07;;;;;;;;;;;;;;;25.22;40.50;95044.91;4223606;28;19932;-80
2023/08/13 08:43:11;;;;;;;;;;;;;;;24.96;40.29;95040.13;4209366;28;19924;-80
2023/08/13 08:45:14;;;;;;;;;;;;;;;25.02;40.60;95045.34;4215088;28;19928;-79
2023/08/13 08:47:15;;;;;;;;;;;;;;;25.24;40.71;95050.03;4209118;28;20359;-78
2023/08/13 08:49:18;;;;;;;;;;;;;;;25.22;40.03;95041.41;4227574;28;19967;-80
2023/08/13 08:51:21;;;;;;;;;;;;;;;25.27;40.50;95044.19;4194119;28;19935;-78
2023/08/13 08:53:22;;;;;;;;;;;;;;;25.36;40.51;95041.91;4222955;28;19924;-80
2023/08/13 08:55:24;;;;;;;;;;;;;;;25.55;39.76;95037.94;4192703;28;20348;-79
2023/08/13 08:57:26;;;;;;;;;;;;;;;25.64;39.53;95043.69;4199725;28;20338;-78
2023/08/13 08:59:29;;;;;;;;;;;;;;;25.77;39.31;95039.84;4228082;28;19928;-87
2023/08/13 09:01:31;;;;;;;;;;;;;;;25.91;38.86;95041.19;4195832;28;19932;-80
2023/08/13 09:03:34;;;;;;;;;;;;;;;25.98;38.66;95041.00;4221042;28;19931;-76
2023/08/13 09:05:36;;;;;;;;;;;;;;;26.07;37.39;95032.28;4226376;28;19931;-80
2023/08/13 09:07:43;;;;;;;;;;;;;;;26.17;37.61;95031.59;4216864;28;19947;-82
2023/08/13 09:09:48;;;;;;;;;;;;;;;25.95;37.03;95028.91;4226998;28;19998;-80
2023/08/13 09:11:50;;;;;;;;;;;;;;;25.84;37.30;95027.09;4196676;28;19947;-77
2023/08/13 09:13:51;;;;;;;;;;;;;;;25.80;37.26;95031.34;4218698;28;20304;-79
2023/08/13 09:15:53;;;;;;;;;;;;;;;26.08;37.48;95031.22;4228139;28;20426;-80
2023/08/13 09:17:57;;;;;;;;;;;;;;;26.30;36.70;95031.22;4229525;28;19996;-80
2023/08/13 09:20:25;;;;;;;;;;;;;;;26.24;36.73;95017.97;4213395;28;19976;-79
2023/08/13 09:22:31;;;;;;;;;;;;;;;25.92;37.34;95014.09;4222845;28;20065;-75
2023/08/13 09:24:33;;;;;;;;;;;;;;;25.44;38.10;95022.72;4228036;28;19927;-82
2023/08/13 09:26:36;;;;;;;;;;;;;;;25.12;38.66;95015.22;4228967;28;19946;-75
2023/08/13 09:28:46;;;;;;;;;;;;;;;25.38;38.96;95012.97;4212096;28;20298;-83
2023/08/13 09:30:48;;;;;;;;;;;;;;;25.63;38.51;95008.00;4198837;28;19928;-77
2023/08/13 09:32:50;;;;;;;;;;;;;;;25.88;38.60;95009.44;4208765;28;20030;-77
2023/08/13 09:34:52;;;;;;;;;;;;;;;26.09;38.05;95014.06;4211768;28;19935;-77
2023/08/13 09:36:54;;;;;;;;;;;;;;;26.19;37.68;95012.56;4211708;28;20024;-84
2023/08/13 09:38:58;;;;;;;;;;;;;;;26.41;37.60;95002.63;4197562;28;19983;-80
2023/08/13 09:41:00;;;;;;;;;;;;;;;26.29;37.34;95007.31;4227272;27;19932;-77
2023/08/13 09:43:09;;;;;;;;;;;;;;;25.92;37.86;95010.59;4224159;28;19994;-75
2023/08/13 09:45:12;;;;;;;;;;;;;;;25.97;38.49;95016.03;4226706;27;19924;-77
2023/08/13 09:47:17;;;;;;;;;;;;;;;25.57;38.70;95013.53;4206547;28;20019;-79
2023/08/13 09:49:20;;;;;;;;;;;;;;;25.16;39.24;95026.28;4198896;28;19963;-81
2023/08/13 09:51:25;;;;;;;;;;;;;;;24.95;39.89;95009.81;4214801;28;19971;-81
2023/08/13 09:53:40;;;;;;;;;;;;;;;25.23;40.00;95017.06;4205323;28;19929;-79
2023/08/13 09:55:44;;;;;;;;;;;;;;;25.53;39.75;95027.47;4232889;27;20302;-77
2023/08/13 09:57:46;;;;;;;;;;;;;;;25.77;38.58;95011.19;4203339;28;19924;-75
2023/08/13 09:59:50;;;;;;;;;;;;;;;25.73;39.03;95008.16;4235539;27;19923;-83
2023/08/13 10:01:52;;;;;;;;;;;;;;;25.86;39.18;95011.56;4237031;27;19928;-80
2023/08/13 10:03:53;;;;;;;;;;;;;;;25.84;39.16;95022.53;4217132;28;19982;-80
2023/08/13 10:05:55;;;;;;;;;;;;;;;25.90;39.10;95010.84;4197624;28;19924;-79
2023/08/13 10:07:57;;;;;;;;;;;;;;;25.98;39.17;95012.28;4210392;28;20001;-79
2023/08/13 10:09:59;;;;;;;;;;;;;;;26.06;39.13;95014.53;4226891;28;19927;-77
2023/08/13 10:12:09;;;;;;;;;;;;;;;26.06;38.98;95009.19;4209764;28;19932;-79
2023/08/13 10:14:11;;;;;;;;;;;;;;;25.97;38.79;95009.88;4219486;28;20239;-77
2023/08/13 10:16:13;;;;;;;;;;;;;;;25.84;38.84;95011.81;4229306;27;20273;-79
2023/08/13 10:18:15;;;;;;;;;;;;;;;25.75;39.15;95015.97;4226291;28;20498;-77
2023/08/13 10:20:18;;;;;;;;;;;;;;;25.74;39.46;95008.97;4214615;28;20074;-79
2023/08/13 10:22:30;;;;;;;;;;;;;;;25.83;39.10;95009.38;4216366;27;19931;-77
2023/08/13 10:24:31;;;;;;;;;;;;;;;26.11;38.80;95011.94;4220819;27;19945;-79
2023/08/13 10:26:33;;;;;;;;;;;;;;;26.35;38.44;95012.50;4200841;28;19924;-79
2023/08/13 10:28:35;;;;;;;;;;;;;;;26.68;38.10;95004.56;4230383;27;20025;-79
2023/08/13 10:30:37;;;;;;;;;;;;;;;26.69;37.95;94995.44;4205717;28;19929;-78
2023/08/13 10:32:50;;;;;;;;;;;;;;;26.63;38.00;94996.44;4205758;28;19931;-79
2023/08/13 10:34:53;;;;;;;;;;;;;;;26.55;38.60;94995.00;4220686;28;19928;-75
2023/08/13 10:36:55;;;;;;;;;;;;;;;26.53;37.87;94991.75;4205842;28;19984;-78
2023/08/13 10:38:58;;;;;;;;;;;;;;;26.60;37.97;94991.59;4201439;28;19938;-78